Time;durP1;ratioP1;P1;durP2;ratioP2;P2;SDS_P1;SDS_P2;PMS_P1;PMS_P2;Temp;Humidity;BMP_temperature;BMP_pressure;BME280_temperature;BME280_humidity;BME280_pressure;Samples;Min_cycle;Max_cycle;Signal;HPM_P1;HPM_P2
2021/03/11 00:00:42;;;;;;;35.60;17.37;;;;;;;-5.17;63.03;100396.28;1750429;81;21151;-67
2021/03/11 00:03:15;;;;;;;32.48;16.82;;;;;;;-5.20;63.02;100395.84;1751447;80;21474;-67
2021/03/11 00:05:44;;;;;;;33.13;16.60;;;;;;;-5.16;62.84;100405.30;1742679;80;21240;-68
2021/03/11 00:08:11;;;;;;;29.75;15.80;;;;;;;-5.14;62.63;100401.02;1742918;82;21182;-68
2021/03/11 00:10:40;;;;;;;36.03;16.65;;;;;;;-5.11;62.42;100411.34;1744657;81;21629;-68
2021/03/11 00:13:09;;;;;;;30.00;15.15;;;;;;;-5.05;62.17;100410.94;1746037;82;21158;-67
2021/03/11 00:15:37;;;;;;;29.50;14.93;;;;;;;-5.07;61.93;100398.04;1751336;81;21314;-69
2021/03/11 00:18:06;;;;;;;27.37;13.93;;;;;;;-5.02;61.79;100400.64;1750048;81;21183;-69
2021/03/11 00:20:34;;;;;;;25.05;13.65;;;;;;;-5.07;61.53;100398.48;1750654;82;21199;-69
2021/03/11 00:23:01;;;;;;;25.52;13.60;;;;;;;-5.09;61.46;100397.16;1747851;81;21300;-69
2021/03/11 00:25:30;;;;;;;31.07;15.43;;;;;;;-5.15;61.66;100394.58;1745783;82;21589;-67
2021/03/11 00:27:58;;;;;;;30.82;14.63;;;;;;;-5.16;61.99;100398.86;1745570;81;21320;-68
2021/03/11 00:30:25;;;;;;;27.55;13.35;;;;;;;-5.17;62.45;100398.86;1740670;81;21309;-68
2021/03/11 00:32:53;;;;;;;27.27;13.62;;;;;;;-5.18;62.72;100396.72;1737123;82;21192;-68
2021/03/11 00:35:21;;;;;;;20.10;9.75;;;;;;;-5.17;62.89;100392.41;1745128;81;21548;-68
2021/03/11 00:37:48;;;;;;;24.10;11.60;;;;;;;-5.24;63.14;100390.64;1725556;82;21179;-67
2021/03/11 00:40:18;;;;;;;27.13;11.65;;;;;;;-5.29;63.33;100390.20;1721627;83;21643;-67
2021/03/11 00:42:45;;;;;;;28.23;12.58;;;;;;;-5.36;63.52;100388.88;1701360;83;21752;-67
2021/03/11 00:45:13;;;;;;;26.33;12.20;;;;;;;-5.39;63.73;100392.75;1688794;85;21294;-67
2021/03/11 00:47:40;;;;;;;23.52;12.33;;;;;;;-5.45;63.79;100390.98;1689001;84;21198;-67
2021/03/11 00:50:17;;;;;;;19.98;10.93;;;;;;;-5.45;63.78;100384.12;1689965;83;21328;-67
2021/03/11 00:52:45;;;;;;;22.93;12.23;;;;;;;-5.42;63.70;100384.56;1690237;84;21158;-68
2021/03/11 00:55:15;;;;;;;25.25;13.18;;;;;;;-5.44;63.74;100372.94;1693918;83;21212;-68
2021/03/11 00:57:42;;;;;;;23.07;11.57;;;;;;;-5.41;64.03;100375.11;1690317;85;21188;-68
2021/03/11 01:00:16;;;;;;;23.95;13.32;;;;;;;-5.47;64.03;100371.64;1690199;83;21185;-68
2021/03/11 01:02:55;;;;;;;23.90;12.33;;;;;;;-5.44;64.14;100362.63;1821875;78;24850;-67
2021/03/11 01:05:28;;;;;;;22.93;11.88;;;;;;;-5.49;64.08;100364.76;1803803;78;21337;-67
2021/03/11 01:07:56;;;;;;;27.75;13.62;;;;;;;-5.47;64.22;100365.64;1771316;80;21626;-67
2021/03/11 01:10:23;;;;;;;28.60;13.28;;;;;;;-5.52;64.42;100365.61;1746271;82;21161;-68
2021/03/11 01:12:51;;;;;;;28.10;14.07;;;;;;;-5.55;64.63;100360.45;1748671;80;21304;-68
2021/03/11 01:15:18;;;;;;;30.43;14.13;;;;;;;-5.52;64.54;100357.88;1708420;83;21594;-68
2021/03/11 01:17:45;;;;;;;23.25;13.28;;;;;;;-5.55;64.60;100362.14;1694810;85;21135;-68
2021/03/11 01:20:18;;;;;;;26.77;13.53;;;;;;;-5.53;64.59;100354.85;1696336;83;21182;-68
2021/03/11 01:22:46;;;;;;;26.05;13.10;;;;;;;-5.52;64.53;100354.45;1727481;83;21600;-68
2021/03/11 01:25:14;;;;;;;26.70;13.90;;;;;;;-5.55;64.28;100355.30;1727681;83;21333;-68
2021/03/11 01:27:41;;;;;;;25.00;13.38;;;;;;;-5.53;64.28;100353.56;1732785;81;22172;-68
2021/03/11 01:30:12;;;;;;;35.73;15.78;;;;;;;-5.50;64.42;100360.04;1730327;83;21176;-68
2021/03/11 01:32:40;;;;;;;31.27;15.80;;;;;;;-5.41;64.31;100363.06;1726481;83;21321;-68
2021/03/11 01:35:08;;;;;;;31.37;15.75;;;;;;;-5.38;64.25;100357.06;1711632;83;21196;-68
2021/03/11 01:37:35;;;;;;;32.95;16.80;;;;;;;-5.35;64.05;100358.38;1712591;84;21280;-67
2021/03/11 01:40:06;;;;;;;30.30;15.18;;;;;;;-5.38;64.01;100362.22;1712449;82;21659;-68
2021/03/11 01:42:34;;;;;;;30.50;14.03;;;;;;;-5.43;63.98;100357.91;1719475;83;21171;-68
2021/03/11 01:45:04;;;;;;;32.28;15.35;;;;;;;-5.51;63.96;100360.89;1707431;83;21755;-68
2021/03/11 01:47:31;;;;;;;32.93;15.50;;;;;;;-5.63;64.22;100371.12;1726134;83;21210;-68
2021/03/11 01:49:59;;;;;;;35.83;16.25;;;;;;;-5.65;64.22;100360.81;1730384;83;21168;-67
2021/03/11 01:52:26;;;;;;;32.60;15.23;;;;;;;-5.67;64.27;100357.79;1725188;83;21190;-68
2021/03/11 01:54:53;;;;;;;30.25;16.15;;;;;;;-5.68;64.21;100368.50;1730433;83;21287;-67
2021/03/11 01:57:20;;;;;;;27.95;15.03;;;;;;;-5.70;64.31;100364.19;1721852;83;21202;-68
2021/03/11 01:59:48;;;;;;;30.65;15.70;;;;;;;-5.77;64.38;100368.05;1723531;83;21195;-67
2021/03/11 02:02:17;;;;;;;29.25;14.40;;;;;;;-5.72;64.54;100364.63;1725723;83;21211;-68
2021/03/11 02:04:45;;;;;;;29.70;15.05;;;;;;;-5.67;64.50;100379.70;1784667;80;21285;-68
2021/03/11 02:07:14;;;;;;;31.73;15.50;;;;;;;-5.68;64.50;100372.37;1688062;83;21175;-68
2021/03/11 02:09:41;;;;;;;32.98;14.55;;;;;;;-5.67;64.42;100368.09;1680340;85;21769;-67
2021/03/11 02:12:19;;;;;;;29.52;13.80;;;;;;;-5.71;64.62;100366.36;1710494;83;21232;-67
2021/03/11 02:14:59;;;;;;;29.57;15.05;;;;;;;-5.69;64.61;100365.92;1722239;83;21173;-67
2021/03/11 02:17:33;;;;;;;31.75;14.13;;;;;;;-5.73;64.66;100374.50;1722598;83;21195;-68
2021/03/11 02:20:30;;;;;;;32.13;14.70;;;;;;;-5.78;64.49;100384.36;1771102;80;21138;-68
2021/03/11 02:23:37;;;;;;;33.08;14.95;;;;;;;-5.80;64.43;100380.05;1721718;83;21198;-67
2021/03/11 02:26:29;;;;;;;26.23;12.80;;;;;;;-5.89;64.75;100380.84;1716547;83;21451;-68
2021/03/11 02:29:04;;;;;;;29.70;15.30;;;;;;;-6.03;65.18;100382.49;1722555;83;21540;-68
2021/03/11 02:31:34;;;;;;;34.35;16.20;;;;;;;-6.07;65.42;100387.16;1674703;85;21143;-67
2021/03/11 02:34:19;;;;;;;27.50;12.93;;;;;;;-6.07;65.59;100382.01;1747910;82;21155;-67
2021/03/11 02:36:49;;;;;;;33.83;16.35;;;;;;;-6.05;65.64;100381.61;1759152;80;21150;-68
2021/03/11 02:39:17;;;;;;;26.95;13.13;;;;;;;-6.07;65.71;100388.45;1789289;80;21131;-68
2021/03/11 02:41:44;;;;;;;33.67;16.75;;;;;;;-6.15;65.85;100387.09;1722321;83;21199;-67
2021/03/11 02:44:11;;;;;;;31.70;14.75;;;;;;;-6.15;65.82;100389.27;1699479;83;21143;-67
2021/03/11 02:46:42;;;;;;;36.75;15.58;;;;;;;-6.20;65.93;100387.08;1716867;83;21211;-67
2021/03/11 02:49:09;;;;;;;35.88;15.35;;;;;;;-6.17;65.84;100392.24;1705669;83;21155;-67
2021/03/11 02:51:37;;;;;;;34.35;16.07;;;;;;;-6.17;65.96;100396.10;1726177;83;22091;-68
2021/03/11 02:54:05;;;;;;;32.40;16.05;;;;;;;-6.15;66.10;100387.09;1722152;83;21247;-68
2021/03/11 02:56:33;;;;;;;35.98;17.37;;;;;;;-6.20;66.38;100387.08;1696193;83;21634;-68
2021/03/11 02:59:00;;;;;;;34.38;16.27;;;;;;;-6.22;66.44;100388.77;1704787;84;21318;-68
2021/03/11 03:01:28;;;;;;;32.28;16.00;;;;;;;-6.15;66.19;100390.55;1703590;83;21199;-68
2021/03/11 03:03:55;;;;;;;35.55;16.15;;;;;;;-6.10;65.97;100394.03;1711551;83;21579;-68
2021/03/11 03:06:22;;;;;;;30.65;15.48;;;;;;;-6.00;65.75;100384.64;1716990;83;21164;-68
2021/03/11 03:08:50;;;;;;;29.85;15.43;;;;;;;-6.01;65.78;100385.92;1766706;80;21801;-68
2021/03/11 03:11:17;;;;;;;34.20;16.23;;;;;;;-6.02;65.68;100385.08;1737535;80;21266;-67
2021/03/11 03:13:45;;;;;;;32.75;15.40;;;;;;;-6.06;65.72;100388.89;1732549;83;21158;-69
2021/03/11 03:16:13;;;;;;;31.62;16.10;;;;;;;-6.11;65.75;100393.58;1768463;80;21531;-69
2021/03/11 03:18:40;;;;;;;29.18;16.10;;;;;;;-6.12;65.82;100394.43;1783576;80;21278;-68
2021/03/11 03:21:11;;;;;;;36.60;15.15;;;;;;;-6.13;66.07;100387.98;1783814;80;21229;-69
2021/03/11 03:23:41;;;;;;;30.88;13.68;;;;;;;-6.08;66.09;100381.59;1775563;80;21179;-68
2021/03/11 03:26:08;;;;;;;33.67;15.88;;;;;;;-6.16;66.29;100387.53;1783568;80;21147;-68
2021/03/11 03:28:36;;;;;;;27.35;13.48;;;;;;;-6.12;66.17;100395.72;1770995;80;21293;-68
2021/03/11 03:31:05;;;;;;;31.62;14.90;;;;;;;-6.17;66.18;100384.52;1717667;83;21198;-68
2021/03/11 03:33:33;;;;;;;34.13;18.57;;;;;;;-6.17;66.06;100383.67;1710999;83;21588;-68
2021/03/11 03:36:00;;;;;;;29.65;15.13;;;;;;;-6.21;66.18;100384.06;1712617;83;21183;-68
2021/03/11 03:38:27;;;;;;;33.88;16.60;;;;;;;-6.26;66.44;100390.89;1717199;83;22265;-68
2021/03/11 03:40:56;;;;;;;35.05;16.15;;;;;;;-6.27;66.54;100386.58;1713193;83;21313;-68
2021/03/11 03:43:30;;;;;;;29.18;14.80;;;;;;;-6.30;66.75;100393.84;1686773;83;21796;-68
2021/03/11 03:46:13;;;;;;;32.50;15.88;;;;;;;-6.28;66.75;100390.00;1678226;83;21349;-68
2021/03/11 03:48:53;;;;;;;31.20;16.32;;;;;;;-6.36;67.04;100385.22;1714164;83;21616;-68
2021/03/11 03:51:24;;;;;;;24.43;13.05;;;;;;;-6.39;67.32;100389.91;1747462;82;21560;-68
2021/03/11 03:54:09;;;;;;;32.58;15.98;;;;;;;-6.43;67.70;100383.88;1750694;80;21131;-68
2021/03/11 03:56:56;;;;;;;27.73;13.83;;;;;;;-6.38;67.72;100382.64;1779978;79;23057;-67
2021/03/11 03:59:34;;;;;;;35.00;19.07;;;;;;;-6.45;67.81;100388.12;1760971;80;21143;-67
2021/03/11 04:02:04;;;;;;;30.43;17.98;;;;;;;-6.45;67.85;100386.84;1692825;84;21189;-67
2021/03/11 04:04:37;;;;;;;28.87;16.32;;;;;;;-6.50;68.01;100394.95;1740508;82;21194;-68
2021/03/11 04:07:09;;;;;;;30.35;16.30;;;;;;;-6.47;68.02;100391.13;1693540;84;21218;-68
2021/03/11 04:09:36;;;;;;;28.52;13.25;;;;;;;-6.49;68.10;100395.39;1678677;85;21329;-68
2021/03/11 04:12:05;;;;;;;25.10;12.98;;;;;;;-6.48;68.09;100397.56;1686328;84;21638;-68
2021/03/11 04:14:33;;;;;;;23.07;13.70;;;;;;;-6.51;68.20;100399.68;1680234;84;21673;-68
2021/03/11 04:17:01;;;;;;;26.62;14.23;;;;;;;-6.51;68.23;100411.26;1676872;85;21350;-67
2021/03/11 04:19:28;;;;;;;27.07;15.48;;;;;;;-6.49;68.29;100399.69;1681563;84;21198;-67
2021/03/11 04:21:56;;;;;;;25.72;15.90;;;;;;;-6.51;68.40;100405.23;1678362;84;21202;-68
2021/03/11 04:24:23;;;;;;;29.00;17.52;;;;;;;-6.50;68.39;100407.81;1678500;84;21186;-67
2021/03/11 04:26:50;;;;;;;32.30;21.00;;;;;;;-6.53;68.54;100407.80;1688615;84;21186;-67
2021/03/11 04:29:18;;;;;;;26.82;15.98;;;;;;;-6.44;68.39;100401.44;1712364;84;21340;-67
2021/03/11 04:31:45;;;;;;;26.37;15.53;;;;;;;-6.42;68.38;100401.45;1702911;84;21736;-68
2021/03/11 04:34:13;;;;;;;22.15;12.00;;;;;;;-6.33;68.21;100400.27;1708539;84;21353;-67
2021/03/11 04:36:40;;;;;;;21.48;11.50;;;;;;;-6.33;68.26;100406.70;1712364;84;21328;-68
2021/03/11 04:39:08;;;;;;;19.48;10.98;;;;;;;-6.26;68.17;100401.19;1666580;85;21216;-68
2021/03/11 04:41:35;;;;;;;24.87;11.57;;;;;;;-6.24;68.12;100400.75;1674968;86;21191;-67
2021/03/11 04:44:02;;;;;;;19.45;11.10;;;;;;;-6.20;68.14;100407.67;1680283;84;21634;-67
2021/03/11 04:46:29;;;;;;;20.25;11.08;;;;;;;-6.16;68.10;100409.42;1703731;84;21332;-68
2021/03/11 04:49:00;;;;;;;18.23;10.53;;;;;;;-6.10;68.08;100400.88;1712457;84;21578;-68
2021/03/11 04:51:28;;;;;;;22.10;11.30;;;;;;;-6.06;68.14;100401.77;1702274;84;21364;-68
2021/03/11 04:53:55;;;;;;;20.02;10.82;;;;;;;-5.94;68.03;100410.86;1678478;85;22229;-67
2021/03/11 04:56:22;;;;;;;21.45;10.78;;;;;;;-5.87;67.88;100408.77;1667327;84;21202;-68
2021/03/11 04:58:50;;;;;;;22.45;10.88;;;;;;;-5.77;67.67;100406.70;1711835;82;21181;-68
2021/03/11 05:01:27;;;;;;;21.93;9.78;;;;;;;-5.65;67.55;100419.20;1715567;83;21158;-68
2021/03/11 05:03:55;;;;;;;23.47;11.48;;;;;;;-5.59;67.48;100415.38;1721028;82;21288;-68
2021/03/11 05:06:22;;;;;;;16.77;9.23;;;;;;;-5.52;67.20;100409.42;1716102;82;21235;-68
2021/03/11 05:08:49;;;;;;;20.35;9.55;;;;;;;-5.48;67.17;100408.58;1714830;84;21197;-67
2021/03/11 05:11:16;;;;;;;17.67;9.40;;;;;;;-5.41;67.11;100408.17;1729160;82;21306;-68
2021/03/11 05:13:44;;;;;;;14.73;8.50;;;;;;;-5.23;67.16;100406.15;1744671;81;21814;-68
2021/03/11 05:16:11;;;;;;;14.80;7.40;;;;;;;-4.67;66.34;100398.59;1741761;82;21906;-67
2021/03/11 05:18:40;;;;;;;14.60;7.90;;;;;;;-4.25;65.48;100396.94;1743932;82;21195;-67
2021/03/11 05:21:09;;;;;;;14.73;7.65;;;;;;;-3.86;64.34;100400.39;1744886;82;21167;-68
2021/03/11 05:23:38;;;;;;;14.35;7.62;;;;;;;-3.54;63.10;100407.24;1721127;82;21280;-68
2021/03/11 05:26:06;;;;;;;15.25;7.42;;;;;;;-3.34;62.21;100400.73;1683687;84;21295;-68
2021/03/11 05:28:33;;;;;;;12.95;7.10;;;;;;;-3.09;61.71;100411.44;1710701;82;21300;-68
2021/03/11 05:31:00;;;;;;;19.67;10.15;;;;;;;-2.93;61.18;100416.95;1718878;82;21293;-67
2021/03/11 05:33:27;;;;;;;19.07;8.20;;;;;;;-2.71;60.72;100411.67;1709238;84;21620;-67
2021/03/11 05:35:54;;;;;;;18.15;8.48;;;;;;;-2.55;59.53;100417.65;1717842;82;21176;-67
2021/03/11 05:38:22;;;;;;;13.90;8.15;;;;;;;-2.32;59.14;100413.16;1712779;82;21170;-68
2021/03/11 05:40:53;;;;;;;19.62;8.88;;;;;;;-2.21;57.54;100421.30;1685011;82;21198;-68
2021/03/11 05:43:21;;;;;;;16.90;8.20;;;;;;;-2.09;57.66;100419.08;1692857;82;21301;-69
2021/03/11 05:45:48;;;;;;;14.80;7.67;;;;;;;-2.00;56.66;100409.47;1678148;84;21135;-69
2021/03/11 05:48:16;;;;;;;18.17;8.50;;;;;;;-1.89;56.95;100413.70;1642683;86;21241;-69
2021/03/11 05:50:44;;;;;;;17.90;8.88;;;;;;;-1.81;56.67;100429.63;1713506;82;21665;-70
2021/03/11 05:53:13;;;;;;;29.92;16.67;;;;;;;-1.74;56.40;100425.69;1660187;85;21727;-70
2021/03/11 05:55:42;;;;;;;25.17;13.58;;;;;;;-1.62;56.28;100424.30;1667899;84;21649;-70
2021/03/11 05:58:09;;;;;;;14.53;8.88;;;;;;;-1.55;54.83;100432.45;1656819;86;21176;-71
2021/03/11 06:00:36;;;;;;;16.57;8.98;;;;;;;-1.43;55.18;100421.50;1650341;86;22263;-69
2021/03/11 06:03:03;;;;;;;17.80;9.53;;;;;;;-1.33;54.59;100416.22;1659363;84;21210;-70
2021/03/11 06:05:30;;;;;;;22.05;10.60;;;;;;;-1.18;54.00;100420.81;1692630;84;21331;-70
2021/03/11 06:07:57;;;;;;;32.03;10.85;;;;;;;-1.20;53.87;100427.32;1723516;82;21200;-70
2021/03/11 06:10:25;;;;;;;18.60;9.73;;;;;;;-1.14;54.02;100427.67;1697886;82;21183;-70
2021/03/11 06:12:52;;;;;;;16.57;9.33;;;;;;;-1.12;54.23;100432.88;1682816;82;21332;-70
2021/03/11 06:15:24;;;;;;;18.80;8.98;;;;;;;-1.08;53.25;100434.55;1710911;82;21219;-70
2021/03/11 06:17:52;;;;;;;19.17;9.88;;;;;;;-1.16;53.00;100431.59;1714256;84;21175;-70
2021/03/11 06:20:19;;;;;;;17.30;8.40;;;;;;;-1.21;52.55;100433.83;1731643;82;21323;-69
2021/03/11 06:22:47;;;;;;;15.30;7.80;;;;;;;-1.25;52.65;100428.23;1718915;82;21244;-69
2021/03/11 06:25:16;;;;;;;30.00;16.27;;;;;;;-1.25;52.99;100435.59;1714372;84;21199;-69
2021/03/11 06:27:45;;;;;;;20.70;11.78;;;;;;;-1.14;53.03;100439.81;1715609;82;21292;-69
2021/03/11 06:30:35;;;;;;;22.22;10.95;;;;;;;-1.19;52.77;100447.63;1714766;84;21190;-69
2021/03/11 06:33:04;;;;;;;21.95;11.18;;;;;;;-1.05;53.35;100455.27;1711771;82;21532;-70
2021/03/11 06:35:33;;;;;;;21.12;11.53;;;;;;;-0.98;53.58;100440.06;1738070;82;21364;-69
2021/03/11 06:38:01;;;;;;;21.75;10.95;;;;;;;-0.83;52.60;100452.01;1720117;82;21127;-69
2021/03/11 06:40:30;;;;;;;21.80;11.00;;;;;;;-0.73;52.11;100443.64;1729258;82;21182;-69
2021/03/11 06:43:13;;;;;;;20.43;11.30;;;;;;;-0.64;51.42;100443.97;1714095;84;21199;-69
2021/03/11 06:45:40;;;;;;;19.60;11.12;;;;;;;-0.63;51.62;100452.19;1716545;82;21548;-70
2021/03/11 06:48:29;;;;;;;19.95;10.65;;;;;;;-0.55;52.37;100449.91;1709056;82;21154;-69
2021/03/11 06:50:58;;;;;;;22.02;10.93;;;;;;;-0.48;51.96;100450.68;1696129;84;21163;-69
2021/03/11 06:53:25;;;;;;;22.50;10.78;;;;;;;-0.45;51.68;100454.98;1729254;82;21156;-70
2021/03/11 06:55:52;;;;;;;23.52;11.53;;;;;;;-0.50;51.11;100457.20;1710927;83;21610;-68
2021/03/11 06:58:27;;;;;;;19.85;10.55;;;;;;;-0.53;50.24;100455.92;1726347;81;21155;-69
2021/03/11 07:01:05;;;;;;;17.97;9.70;;;;;;;-0.61;50.29;100461.68;1738037;81;21172;-69
2021/03/11 07:03:43;;;;;;;16.07;9.60;;;;;;;-0.69;50.86;100456.58;1685873;84;21419;-69
2021/03/11 07:06:35;;;;;;;19.25;10.48;;;;;;;-0.73;50.88;100461.41;1712880;82;21138;-69
2021/03/11 07:09:05;;;;;;;24.92;10.85;;;;;;;-0.75;51.25;100455.36;1695088;84;21138;-70
2021/03/11 07:11:33;;;;;;;21.23;10.13;;;;;;;-0.66;50.97;100456.53;1695331;83;21325;-70
2021/03/11 07:14:03;;;;;;;18.05;9.40;;;;;;;-0.52;50.17;100451.61;1695339;83;21335;-71
2021/03/11 07:16:33;;;;;;;18.52;9.35;;;;;;;-0.44;50.41;100456.70;1695693;84;21205;-70
2021/03/11 07:19:18;;;;;;;21.82;10.40;;;;;;;-0.31;50.59;100448.29;1711857;83;21172;-70
2021/03/11 07:21:51;;;;;;;16.37;8.85;;;;;;;-0.27;49.47;100452.14;1740132;82;21172;-70
2021/03/11 07:24:38;;;;;;;16.03;9.97;;;;;;;-0.19;49.53;100452.02;1687767;83;21350;-70
2021/03/11 07:27:07;;;;;;;16.75;8.60;;;;;;;-0.11;49.45;100463.61;1695273;83;21650;-69
2021/03/11 07:29:34;;;;;;;20.30;9.08;;;;;;;-0.09;49.26;100463.13;1684277;84;21255;-69
2021/03/11 07:32:04;;;;;;;20.48;8.80;;;;;;;-0.09;48.85;100458.80;1694001;83;21303;-69
2021/03/11 07:34:36;;;;;;;14.98;8.45;;;;;;;-0.03;48.03;100465.64;1695597;84;21198;-68
2021/03/11 07:37:03;;;;;;;12.20;7.33;;;;;;;-0.03;47.96;100464.34;1671690;84;21276;-69
2021/03/11 07:39:39;;;;;;;13.10;7.37;;;;;;;0.03;47.78;100469.45;1695164;84;21169;-69
2021/03/11 07:42:08;;;;;;;12.05;7.35;;;;;;;0.04;47.85;100475.08;1682531;84;21753;-69
2021/03/11 07:44:37;;;;;;;12.47;7.30;;;;;;;0.16;47.32;100463.61;1711897;82;21150;-70
2021/03/11 07:47:09;;;;;;;16.55;8.70;;;;;;;0.08;47.50;100462.89;1666653;86;21338;-69
2021/03/11 07:49:36;;;;;;;13.00;7.58;;;;;;;0.16;48.07;100468.36;1708053;82;21575;-69
2021/03/11 07:52:06;;;;;;;12.15;8.05;;;;;;;0.16;47.33;100467.06;1671617;84;21587;-69
2021/03/11 07:54:35;;;;;;;13.28;8.10;;;;;;;0.21;46.53;100470.90;1665724;86;21190;-69
2021/03/11 07:57:03;;;;;;;16.82;8.70;;;;;;;0.13;47.33;100468.42;1667090;84;21116;-70
2021/03/11 07:59:30;;;;;;;16.87;8.55;;;;;;;0.18;47.42;100456.66;1649194;87;21344;-70
2021/03/11 08:02:01;;;;;;;14.65;8.33;;;;;;;0.21;47.15;100468.75;1644228;85;21155;-71
2021/03/11 08:04:33;;;;;;;15.28;7.92;;;;;;;0.15;46.51;100462.77;1656185;85;21215;-70
2021/03/11 08:07:21;;;;;;;9.43;7.10;;;;;;;0.11;47.01;100471.48;1653385;87;21202;-70
2021/03/11 08:09:54;;;;;;;11.55;7.47;;;;;;;0.05;46.67;100461.20;1664277;85;21611;-70
2021/03/11 08:12:38;;;;;;;12.58;7.15;;;;;;;0.07;46.91;100459.41;1649057;87;21170;-70
2021/03/11 08:15:16;;;;;;;12.03;7.72;;;;;;;0.09;47.67;100464.16;1662961;84;21651;-70
2021/03/11 08:17:49;;;;;;;12.60;7.35;;;;;;;0.21;48.00;100455.29;1614781;87;21653;-71
2021/03/11 08:20:26;;;;;;;12.18;7.95;;;;;;;0.28;47.54;100445.21;1650408;87;21175;-70
2021/03/11 08:23:00;;;;;;;12.20;7.75;;;;;;;0.34;46.63;100444.23;1677907;84;21760;-71
2021/03/11 08:26:43;;;;;;;14.50;8.28;;;;;;;0.34;45.95;100441.63;1779269;79;22434;-70
2021/03/11 08:29:23;;;;;;;12.88;7.42;;;;;;;0.25;46.17;100440.49;1738431;80;21223;-71
2021/03/11 08:31:51;;;;;;;13.32;7.60;;;;;;;0.25;46.69;100439.20;1722107;83;21169;-70
2021/03/11 08:34:36;;;;;;;11.40;7.70;;;;;;;0.31;45.97;100439.09;1711392;80;21241;-70
2021/03/11 08:37:21;;;;;;;11.33;6.80;;;;;;;0.36;45.92;100434.67;1786551;80;21191;-70
2021/03/11 08:39:49;;;;;;;15.05;7.37;;;;;;;0.36;45.79;100435.97;1750946;80;21179;-71
2021/03/11 08:42:47;;;;;;;13.72;7.97;;;;;;;0.43;45.43;100436.27;1772845;80;21162;-70
2021/03/11 08:45:38;;;;;;;14.47;8.48;;;;;;;0.45;46.16;100434.95;1723538;82;21721;-70
2021/03/11 08:48:17;;;;;;;12.63;7.65;;;;;;;0.58;45.95;100416.92;1724520;80;22190;-70
2021/03/11 08:50:55;;;;;;;15.03;7.33;;;;;;;0.64;45.60;100422.47;1724873;82;21171;-69
2021/03/11 08:53:44;;;;;;;11.30;7.25;;;;;;;0.73;45.02;100420.98;1748843;80;21205;-71
2021/03/11 08:56:23;;;;;;;18.30;9.33;;;;;;;0.72;44.57;100418.42;1690703;84;21189;-70
2021/03/11 08:59:02;;;;;;;13.53;7.70;;;;;;;0.73;45.53;100413.17;1701178;83;21659;-71
2021/03/11 09:01:39;;;;;;;14.98;8.68;;;;;;;0.72;45.18;100411.45;1735232;82;21584;-71
2021/03/11 09:04:27;;;;;;;12.82;7.47;;;;;;;0.83;45.48;100415.59;1702474;82;21654;-71
2021/03/11 09:07:13;;;;;;;13.75;7.87;;;;;;;0.90;44.91;100413.30;1708446;82;21713;-72
2021/03/11 09:09:49;;;;;;;13.03;7.67;;;;;;;0.91;44.38;100418.47;1689210;84;21175;-70
2021/03/11 09:12:37;;;;;;;;;;;;;;;0.87;45.49;100418.55;1714567;82;21154;-71
2021/03/11 09:15:08;;;;;;;16.70;8.88;;;;;;;0.91;45.06;100413.69;1705484;82;20272;-71
2021/03/11 09:17:37;;;;;;;15.00;7.40;;;;;;;0.87;45.60;100413.34;1693965;82;21178;-72
2021/03/11 09:20:14;;;;;;;11.63;7.42;;;;;;;0.90;45.46;100411.53;1694903;82;21194;-70
2021/03/11 09:22:47;;;;;;;14.60;9.03;;;;;;;0.97;45.76;100410.96;1681433;84;21197;-69
2021/03/11 09:25:21;;;;;;;16.62;8.18;;;;;;;1.09;45.79;100413.78;1669016;83;21203;-70
2021/03/11 09:27:54;;;;;;;16.85;7.87;;;;;;;1.17;45.43;100407.11;1688687;83;21190;-72
2021/03/11 09:30:33;;;;;;;15.10;7.78;;;;;;;1.24;44.80;100411.28;1690707;84;21297;-71
2021/03/11 09:33:12;;;;;;;12.43;6.80;;;;;;;1.25;44.39;100415.19;1719461;83;21681;-71
2021/03/11 09:35:41;;;;;;;13.62;7.95;;;;;;;1.25;43.38;100408.67;1767723;81;21164;-71
2021/03/11 09:38:11;;;;;;;16.62;7.70;;;;;;;1.32;43.87;100409.39;1731212;81;21266;-70
2021/03/11 09:40:46;;;;;;;13.22;7.47;;;;;;;1.46;43.71;100392.99;1726730;82;21127;-70
2021/03/11 09:43:35;;;;;;;12.73;7.72;;;;;;;1.59;43.13;100404.45;1707459;81;21131;-70
2021/03/11 09:46:17;;;;;;;11.38;6.45;;;;;;;1.69;43.00;100405.96;1718094;81;21147;-71
2021/03/11 09:48:48;;;;;;;13.28;6.95;;;;;;;1.67;42.71;100413.41;1711582;83;21147;-71
2021/03/11 09:51:21;;;;;;;9.95;5.80;;;;;;;1.60;42.12;100411.39;1760095;81;21104;-71
2021/03/11 09:53:55;;;;;;;11.33;7.10;;;;;;;1.58;42.72;100409.25;1717348;82;21140;-70
2021/03/11 09:56:33;;;;;;;9.83;5.58;;;;;;;1.66;42.99;100412.53;1731713;81;22105;-70
2021/03/11 09:59:06;;;;;;;11.50;6.05;;;;;;;1.67;42.10;100416.86;1719085;81;21254;-70
2021/03/11 10:01:41;;;;;;;9.43;5.80;;;;;;;1.74;41.97;100411.92;1719966;82;21168;-70
2021/03/11 10:04:24;;;;;;;16.70;6.70;;;;;;;1.77;41.24;100410.53;1738503;81;21667;-70
2021/03/11 10:07:01;;;;;;;9.65;5.67;;;;;;;1.85;42.19;100406.90;1737853;81;21152;-70
2021/03/11 10:09:39;;;;;;;10.18;5.80;;;;;;;1.83;41.34;100406.06;1718768;81;21237;-71
2021/03/11 10:12:07;;;;;;;9.78;5.40;;;;;;;1.84;41.62;100406.48;1772811;81;21179;-70
2021/03/11 10:14:37;;;;;;;9.38;6.17;;;;;;;1.80;41.44;100406.57;1758701;81;21725;-71
2021/03/11 10:17:06;;;;;;;9.88;6.00;;;;;;;1.82;42.67;100410.44;1736460;81;21647;-71
2021/03/11 10:19:36;;;;;;;9.10;5.28;;;;;;;1.90;42.10;100398.52;1733066;81;21651;-71
2021/03/11 10:22:06;;;;;;;12.88;6.55;;;;;;;1.96;42.15;100398.38;1743185;81;21301;-71
2021/03/11 10:24:49;;;;;;;9.18;5.78;;;;;;;2.09;41.93;100395.86;1715981;81;21309;-71
2021/03/11 10:27:30;;;;;;;13.32;6.53;;;;;;;2.08;41.44;100392.83;1725015;80;21611;-70
2021/03/11 10:30:20;;;;;;;10.78;6.70;;;;;;;2.09;42.59;100391.09;1755630;80;21317;-70
2021/03/11 10:32:52;;;;;;;13.08;7.20;;;;;;;2.05;42.29;100391.62;1722906;82;21549;-70
2021/03/11 10:35:36;;;;;;;13.00;6.25;;;;;;;2.03;40.96;100388.64;1744946;80;21301;-71
2021/03/11 10:38:29;;;;;;;11.00;6.47;;;;;;;1.96;41.87;100382.72;1744119;82;21173;-70
2021/03/11 10:41:14;;;;;;;10.45;6.10;;;;;;;1.94;40.17;100388.41;1740913;80;21170;-70
2021/03/11 10:43:42;;;;;;;10.20;5.22;;;;;;;1.88;41.69;100378.12;1677986;84;21196;-70
2021/03/11 10:46:18;;;;;;;11.43;6.17;;;;;;;1.78;40.82;100375.74;1738034;80;21179;-70
2021/03/11 10:48:51;;;;;;;12.00;7.35;;;;;;;1.70;40.46;100372.48;1741241;80;21143;-71
2021/03/11 10:51:20;;;;;;;11.10;6.33;;;;;;;1.64;41.91;100370.01;1725397;82;21220;-70
2021/03/11 10:53:48;;;;;;;7.25;5.08;;;;;;;1.72;41.35;100385.02;1745332;80;21213;-70
2021/03/11 10:56:15;;;;;;;9.33;5.90;;;;;;;1.61;40.77;100377.45;1738955;82;21583;-69
2021/03/11 10:58:42;;;;;;;9.60;6.92;;;;;;;1.63;41.45;100387.38;1724834;82;21210;-72
2021/03/11 11:01:22;;;;;;;10.13;5.87;;;;;;;1.61;42.42;100373.97;1731226;80;21187;-71
2021/03/11 11:03:48;;;;;;;10.30;6.10;;;;;;;1.73;42.47;100355.44;1729256;82;21212;-71
2021/03/11 11:06:16;;;;;;;8.48;5.50;;;;;;;1.78;41.54;100363.16;1744262;80;21591;-71
2021/03/11 11:08:44;;;;;;;8.88;5.90;;;;;;;1.78;42.01;100370.98;1701651;84;21167;-71
2021/03/11 11:11:13;;;;;;;10.63;5.83;;;;;;;1.73;41.96;100360.66;1722384;81;21184;-72
2021/03/11 11:13:42;;;;;;;15.13;8.50;;;;;;;1.78;42.17;100352.27;1687938;84;21185;-70
2021/03/11 11:16:11;;;;;;;12.13;7.67;;;;;;;1.76;41.94;100350.14;1744115;82;21483;-71
2021/03/11 11:18:39;;;;;;;11.53;5.90;;;;;;;1.76;41.86;100346.22;1744700;80;21122;-72
2021/03/11 11:21:08;;;;;;;9.40;5.85;;;;;;;1.66;42.26;100338.67;1730072;80;21223;-70
2021/03/11 11:23:35;;;;;;;11.48;5.97;;;;;;;1.77;42.83;100328.39;1725029;82;21127;-71
2021/03/11 11:26:03;;;;;;;12.20;5.95;;;;;;;1.82;43.12;100332.63;1758835;80;21610;-71
2021/03/11 11:28:30;;;;;;;10.32;6.25;;;;;;;1.91;43.48;100332.42;1730515;83;21214;-71
2021/03/11 11:30:57;;;;;;;10.05;5.62;;;;;;;1.97;42.51;100332.27;1735076;80;21142;-70
2021/03/11 11:33:25;;;;;;;8.43;5.60;;;;;;;1.96;42.32;100330.55;1786284;80;21151;-71
2021/03/11 11:35:52;;;;;;;7.83;5.72;;;;;;;1.88;41.98;100320.73;1699492;83;21315;-72
2021/03/11 11:38:21;;;;;;;9.23;5.90;;;;;;;1.89;42.52;100318.12;1702548;83;21314;-70